Terminal Aerodrome Forecast
Issued by NWS Cleveland, OH

Home | Current Version | Previous Version | Graphics & Text | Print | Product List | Glossary On
Versions: 1 2 3 4 5 6 7 8 9 10 11 12 13 14 15 16 17 18 19 20 21
000
FTUS41 KCLE 291100 RRA
TAFMFD
TAF
KMFD 291142Z 2912/3012 17018G26KT P6SM VCSH SCT040 OVC080
      TEMPO 2913/2915 5SM -FZRAPL BKN025 OVC035
     FM291500 20014G22KT 2SM -DZ BR SCT006 OVC012
      TEMPO 2920/2922 2SM -RASN OVC006
     FM292200 28018G30KT 2SM -SN BR OVC002
     FM300100 30015G25KT 4SM BR BKN008 OVC015=

USA.gov is the U.S. government's official web portal to all federal, state and local government web resources and services.